sensor_id;sensor_type;location;lat;lon;timestamp;P1;durP1;ratioP1;P2;durP2;ratioP2
41875;SDS011;27555;50.808;4.402;2023-08-06T00:00:15;4.38;;;1.38;;
41875;SDS011;27555;50.808;4.402;2023-08-06T00:02:41;2.28;;;1.08;;
41875;SDS011;27555;50.808;4.402;2023-08-06T00:05:07;3.50;;;1.27;;
41875;SDS011;27555;50.808;4.402;2023-08-06T00:07:33;5.32;;;1.70;;
41875;SDS011;27555;50.808;4.402;2023-08-06T00:09:58;6.35;;;1.45;;
41875;SDS011;27555;50.808;4.402;2023-08-06T00:12:24;7.50;;;1.60;;
41875;SDS011;27555;50.808;4.402;2023-08-06T00:14:50;3.92;;;1.30;;
41875;SDS011;27555;50.808;4.402;2023-08-06T00:17:16;4.05;;;1.55;;
41875;SDS011;27555;50.808;4.402;2023-08-06T00:19:42;3.83;;;1.40;;
41875;SDS011;27555;50.808;4.402;2023-08-06T00:22:07;4.32;;;1.67;;
41875;SDS011;27555;50.808;4.402;2023-08-06T00:24:34;3.42;;;1.77;;
41875;SDS011;27555;50.808;4.402;2023-08-06T00:26:59;6.45;;;2.03;;
41875;SDS011;27555;50.808;4.402;2023-08-06T00:29:25;5.55;;;1.85;;
41875;SDS011;27555;50.808;4.402;2023-08-06T00:31:52;3.30;;;1.95;;
41875;SDS011;27555;50.808;4.402;2023-08-06T00:34:17;4.05;;;2.05;;
41875;SDS011;27555;50.808;4.402;2023-08-06T00:36:43;7.00;;;2.15;;
41875;SDS011;27555;50.808;4.402;2023-08-06T00:39:09;8.13;;;3.00;;
41875;SDS011;27555;50.808;4.402;2023-08-06T00:41:34;6.07;;;2.28;;
41875;SDS011;27555;50.808;4.402;2023-08-06T00:44:00;9.07;;;2.55;;
41875;SDS011;27555;50.808;4.402;2023-08-06T00:46:26;8.88;;;2.80;;
41875;SDS011;27555;50.808;4.402;2023-08-06T00:48:52;13.75;;;3.10;;
41875;SDS011;27555;50.808;4.402;2023-08-06T00:51:17;8.43;;;3.38;;
41875;SDS011;27555;50.808;4.402;2023-08-06T00:53:45;8.68;;;3.65;;
41875;SDS011;27555;50.808;4.402;2023-08-06T00:56:11;6.45;;;3.17;;
41875;SDS011;27555;50.808;4.402;2023-08-06T00:58:37;11.23;;;3.67;;
41875;SDS011;27555;50.808;4.402;2023-08-06T01:01:04;9.07;;;3.42;;
41875;SDS011;27555;50.808;4.402;2023-08-06T01:03:29;10.73;;;3.45;;
41875;SDS011;27555;50.808;4.402;2023-08-06T01:05:55;5.88;;;3.03;;
41875;SDS011;27555;50.808;4.402;2023-08-06T01:16:06;12.35;;;4.15;;
41875;SDS011;27555;50.808;4.402;2023-08-06T01:18:32;6.90;;;3.85;;
41875;SDS011;27555;50.808;4.402;2023-08-06T01:20:58;8.05;;;4.32;;
41875;SDS011;27555;50.808;4.402;2023-08-06T01:23:23;13.52;;;4.93;;
41875;SDS011;27555;50.808;4.402;2023-08-06T01:26:05;13.10;;;5.22;;
41875;SDS011;27555;50.808;4.402;2023-08-06T01:28:51;11.45;;;4.95;;
41875;SDS011;27555;50.808;4.402;2023-08-06T01:31:38;7.88;;;4.10;;
41875;SDS011;27555;50.808;4.402;2023-08-06T01:34:07;12.48;;;5.13;;
41875;SDS011;27555;50.808;4.402;2023-08-06T01:36:38;10.07;;;4.32;;
41875;SDS011;27555;50.808;4.402;2023-08-06T01:39:04;12.23;;;4.78;;
41875;SDS011;27555;50.808;4.402;2023-08-06T01:41:30;15.25;;;4.95;;
41875;SDS011;27555;50.808;4.402;2023-08-06T01:43:56;9.45;;;5.03;;
41875;SDS011;27555;50.808;4.402;2023-08-06T01:46:21;11.95;;;4.75;;
41875;SDS011;27555;50.808;4.402;2023-08-06T01:48:47;10.35;;;4.95;;
41875;SDS011;27555;50.808;4.402;2023-08-06T01:51:13;11.95;;;4.47;;
41875;SDS011;27555;50.808;4.402;2023-08-06T01:53:38;15.25;;;3.80;;
41875;SDS011;27555;50.808;4.402;2023-08-06T01:56:05;7.20;;;3.70;;
41875;SDS011;27555;50.808;4.402;2023-08-06T01:58:32;8.98;;;3.78;;
41875;SDS011;27555;50.808;4.402;2023-08-06T02:00:58;9.25;;;3.33;;
41875;SDS011;27555;50.808;4.402;2023-08-06T02:03:23;14.55;;;3.55;;
41875;SDS011;27555;50.808;4.402;2023-08-06T02:05:49;6.15;;;2.75;;
41875;SDS011;27555;50.808;4.402;2023-08-06T02:08:15;7.18;;;2.20;;
41875;SDS011;27555;50.808;4.402;2023-08-06T02:10:40;11.75;;;2.78;;
41875;SDS011;27555;50.808;4.402;2023-08-06T02:13:07;8.30;;;2.05;;
41875;SDS011;27555;50.808;4.402;2023-08-06T02:15:33;4.00;;;1.75;;
41875;SDS011;27555;50.808;4.402;2023-08-06T02:17:58;12.10;;;2.45;;
41875;SDS011;27555;50.808;4.402;2023-08-06T02:20:24;8.23;;;1.55;;
41875;SDS011;27555;50.808;4.402;2023-08-06T02:22:50;5.38;;;2.15;;
41875;SDS011;27555;50.808;4.402;2023-08-06T02:25:15;7.80;;;2.00;;
41875;SDS011;27555;50.808;4.402;2023-08-06T02:27:41;6.43;;;2.28;;
41875;SDS011;27555;50.808;4.402;2023-08-06T02:30:06;6.18;;;1.73;;
41875;SDS011;27555;50.808;4.402;2023-08-06T02:32:32;6.78;;;2.28;;
41875;SDS011;27555;50.808;4.402;2023-08-06T02:35:00;21.45;;;2.97;;
41875;SDS011;27555;50.808;4.402;2023-08-06T02:37:27;5.30;;;1.83;;
41875;SDS011;27555;50.808;4.402;2023-08-06T02:39:52;13.77;;;2.95;;
41875;SDS011;27555;50.808;4.402;2023-08-06T02:42:18;7.50;;;2.10;;
41875;SDS011;27555;50.808;4.402;2023-08-06T02:44:44;6.93;;;1.83;;
41875;SDS011;27555;50.808;4.402;2023-08-06T02:47:09;6.60;;;1.65;;
41875;SDS011;27555;50.808;4.402;2023-08-06T02:49:35;3.75;;;1.75;;
41875;SDS011;27555;50.808;4.402;2023-08-06T02:52:00;9.38;;;1.83;;
41875;SDS011;27555;50.808;4.402;2023-08-06T02:54:26;6.40;;;2.85;;
41875;SDS011;27555;50.808;4.402;2023-08-06T02:56:52;11.20;;;2.25;;
41875;SDS011;27555;50.808;4.402;2023-08-06T02:59:17;8.55;;;1.35;;
41875;SDS011;27555;50.808;4.402;2023-08-06T03:01:43;6.63;;;1.90;;
41875;SDS011;27555;50.808;4.402;2023-08-06T03:04:09;6.68;;;2.30;;
41875;SDS011;27555;50.808;4.402;2023-08-06T03:06:34;14.68;;;3.15;;
41875;SDS011;27555;50.808;4.402;2023-08-06T03:09:00;6.85;;;2.25;;
41875;SDS011;27555;50.808;4.402;2023-08-06T03:11:25;14.35;;;2.13;;
41875;SDS011;27555;50.808;4.402;2023-08-06T03:13:51;10.32;;;2.90;;
41875;SDS011;27555;50.808;4.402;2023-08-06T03:16:17;8.52;;;3.00;;
41875;SDS011;27555;50.808;4.402;2023-08-06T03:18:42;8.82;;;2.80;;
41875;SDS011;27555;50.808;4.402;2023-08-06T03:21:08;13.05;;;2.90;;
41875;SDS011;27555;50.808;4.402;2023-08-06T03:23:34;9.00;;;3.03;;
41875;SDS011;27555;50.808;4.402;2023-08-06T03:26:02;12.23;;;3.35;;
41875;SDS011;27555;50.808;4.402;2023-08-06T03:28:28;12.98;;;5.30;;
41875;SDS011;27555;50.808;4.402;2023-08-06T03:31:00;17.15;;;6.85;;
41875;SDS011;27555;50.808;4.402;2023-08-06T03:33:29;15.00;;;6.22;;
41875;SDS011;27555;50.808;4.402;2023-08-06T03:35:55;19.67;;;7.82;;
41875;SDS011;27555;50.808;4.402;2023-08-06T03:38:21;18.02;;;8.00;;
41875;SDS011;27555;50.808;4.402;2023-08-06T03:40:47;13.43;;;7.22;;
41875;SDS011;27555;50.808;4.402;2023-08-06T03:43:14;19.40;;;7.63;;
41875;SDS011;27555;50.808;4.402;2023-08-06T03:45:42;23.17;;;8.05;;
41875;SDS011;27555;50.808;4.402;2023-08-06T03:48:08;9.02;;;6.10;;
41875;SDS011;27555;50.808;4.402;2023-08-06T03:50:34;9.73;;;5.65;;
41875;SDS011;27555;50.808;4.402;2023-08-06T03:53:00;6.47;;;4.05;;
41875;SDS011;27555;50.808;4.402;2023-08-06T03:55:26;4.93;;;3.88;;
41875;SDS011;27555;50.808;4.402;2023-08-06T03:57:51;4.05;;;3.00;;
41875;SDS011;27555;50.808;4.402;2023-08-06T04:00:17;3.15;;;1.90;;
41875;SDS011;27555;50.808;4.402;2023-08-06T04:02:43;3.15;;;1.85;;
41875;SDS011;27555;50.808;4.402;2023-08-06T04:05:09;1.67;;;0.80;;
41875;SDS011;27555;50.808;4.402;2023-08-06T04:07:34;2.83;;;0.70;;
41875;SDS011;27555;50.808;4.402;2023-08-06T04:10:02;3.97;;;0.93;;
41875;SDS011;27555;50.808;4.402;2023-08-06T04:12:29;5.43;;;0.73;;
41875;SDS011;27555;50.808;4.402;2023-08-06T04:14:55;3.42;;;1.00;;
41875;SDS011;27555;50.808;4.402;2023-08-06T04:17:22;2.85;;;0.50;;
41875;SDS011;27555;50.808;4.402;2023-08-06T04:19:49;4.05;;;0.73;;
41875;SDS011;27555;50.808;4.402;2023-08-06T04:22:16;3.60;;;0.80;;
41875;SDS011;27555;50.808;4.402;2023-08-06T04:24:42;1.67;;;0.93;;
41875;SDS011;27555;50.808;4.402;2023-08-06T04:27:11;1.63;;;0.68;;
41875;SDS011;27555;50.808;4.402;2023-08-06T04:29:37;0.90;;;0.70;;
41875;SDS011;27555;50.808;4.402;2023-08-06T04:32:03;2.60;;;0.98;;
41875;SDS011;27555;50.808;4.402;2023-08-06T04:34:31;2.67;;;1.40;;
41875;SDS011;27555;50.808;4.402;2023-08-06T04:36:56;1.45;;;1.00;;
41875;SDS011;27555;50.808;4.402;2023-08-06T04:39:23;4.30;;;1.25;;
41875;SDS011;27555;50.808;4.402;2023-08-06T04:41:49;3.50;;;1.73;;
41875;SDS011;27555;50.808;4.402;2023-08-06T04:44:15;5.15;;;1.40;;
41875;SDS011;27555;50.808;4.402;2023-08-06T04:46:40;4.20;;;1.58;;
41875;SDS011;27555;50.808;4.402;2023-08-06T04:49:06;3.03;;;1.35;;
41875;SDS011;27555;50.808;4.402;2023-08-06T04:51:31;3.58;;;1.60;;
41875;SDS011;27555;50.808;4.402;2023-08-06T04:53:57;3.05;;;1.40;;
41875;SDS011;27555;50.808;4.402;2023-08-06T04:56:25;3.78;;;1.40;;
41875;SDS011;27555;50.808;4.402;2023-08-06T04:58:52;10.32;;;2.10;;
41875;SDS011;27555;50.808;4.402;2023-08-06T05:01:17;5.20;;;1.83;;
41875;SDS011;27555;50.808;4.402;2023-08-06T05:03:43;6.25;;;2.15;;
41875;SDS011;27555;50.808;4.402;2023-08-06T05:06:09;6.55;;;2.83;;
41875;SDS011;27555;50.808;4.402;2023-08-06T05:08:35;10.23;;;2.30;;
41875;SDS011;27555;50.808;4.402;2023-08-06T05:11:01;4.45;;;2.33;;
41875;SDS011;27555;50.808;4.402;2023-08-06T05:13:26;5.35;;;2.40;;
41875;SDS011;27555;50.808;4.402;2023-08-06T05:15:55;5.72;;;2.47;;
41875;SDS011;27555;50.808;4.402;2023-08-06T05:18:21;6.30;;;2.30;;
41875;SDS011;27555;50.808;4.402;2023-08-06T05:20:47;3.80;;;2.03;;
41875;SDS011;27555;50.808;4.402;2023-08-06T05:23:13;6.97;;;2.47;;
41875;SDS011;27555;50.808;4.402;2023-08-06T05:25:39;9.30;;;2.13;;
41875;SDS011;27555;50.808;4.402;2023-08-06T05:28:04;3.55;;;1.95;;
41875;SDS011;27555;50.808;4.402;2023-08-06T05:30:30;10.73;;;2.60;;
41875;SDS011;27555;50.808;4.402;2023-08-06T05:32:56;5.45;;;2.33;;
41875;SDS011;27555;50.808;4.402;2023-08-06T05:35:22;5.30;;;2.65;;
41875;SDS011;27555;50.808;4.402;2023-08-06T05:37:48;8.82;;;2.75;;
41875;SDS011;27555;50.808;4.402;2023-08-06T05:40:14;11.23;;;3.17;;
41875;SDS011;27555;50.808;4.402;2023-08-06T05:42:40;6.78;;;2.90;;
41875;SDS011;27555;50.808;4.402;2023-08-06T05:45:06;7.10;;;2.72;;
41875;SDS011;27555;50.808;4.402;2023-08-06T05:47:32;12.70;;;2.78;;
41875;SDS011;27555;50.808;4.402;2023-08-06T05:49:58;11.82;;;3.22;;
41875;SDS011;27555;50.808;4.402;2023-08-06T05:52:24;8.50;;;2.75;;
41875;SDS011;27555;50.808;4.402;2023-08-06T05:54:49;15.48;;;3.08;;
41875;SDS011;27555;50.808;4.402;2023-08-06T05:57:15;7.32;;;2.47;;
41875;SDS011;27555;50.808;4.402;2023-08-06T05:59:41;20.65;;;3.97;;
41875;SDS011;27555;50.808;4.402;2023-08-06T06:02:07;11.35;;;3.40;;
41875;SDS011;27555;50.808;4.402;2023-08-06T06:04:33;12.45;;;3.90;;
41875;SDS011;27555;50.808;4.402;2023-08-06T06:06:58;10.93;;;3.10;;
41875;SDS011;27555;50.808;4.402;2023-08-06T06:09:24;6.90;;;3.55;;
41875;SDS011;27555;50.808;4.402;2023-08-06T06:11:50;10.32;;;2.83;;
41875;SDS011;27555;50.808;4.402;2023-08-06T06:14:18;8.07;;;3.05;;
41875;SDS011;27555;50.808;4.402;2023-08-06T06:16:44;7.55;;;2.75;;
41875;SDS011;27555;50.808;4.402;2023-08-06T06:19:11;11.95;;;2.55;;
41875;SDS011;27555;50.808;4.402;2023-08-06T06:21:37;11.50;;;2.83;;
41875;SDS011;27555;50.808;4.402;2023-08-06T06:24:04;11.13;;;2.97;;
41875;SDS011;27555;50.808;4.402;2023-08-06T06:26:30;12.13;;;2.22;;
41875;SDS011;27555;50.808;4.402;2023-08-06T06:28:57;10.38;;;2.85;;
41875;SDS011;27555;50.808;4.402;2023-08-06T06:31:23;12.10;;;2.85;;
41875;SDS011;27555;50.808;4.402;2023-08-06T06:33:49;10.55;;;2.92;;
41875;SDS011;27555;50.808;4.402;2023-08-06T06:36:14;17.92;;;3.35;;
41875;SDS011;27555;50.808;4.402;2023-08-06T06:38:40;15.52;;;2.97;;
41875;SDS011;27555;50.808;4.402;2023-08-06T06:41:05;7.43;;;2.63;;
41875;SDS011;27555;50.808;4.402;2023-08-06T06:43:31;11.50;;;2.60;;
41875;SDS011;27555;50.808;4.402;2023-08-06T06:46:00;12.70;;;2.97;;
41875;SDS011;27555;50.808;4.402;2023-08-06T06:48:27;10.50;;;2.67;;
41875;SDS011;27555;50.808;4.402;2023-08-06T06:50:57;8.73;;;2.80;;
41875;SDS011;27555;50.808;4.402;2023-08-06T06:53:23;12.48;;;2.63;;
41875;SDS011;27555;50.808;4.402;2023-08-06T06:55:55;11.33;;;2.97;;
41875;SDS011;27555;50.808;4.402;2023-08-06T06:58:30;9.25;;;2.80;;
41875;SDS011;27555;50.808;4.402;2023-08-06T07:00:56;13.95;;;2.95;;
41875;SDS011;27555;50.808;4.402;2023-08-06T07:03:22;10.95;;;2.85;;
41875;SDS011;27555;50.808;4.402;2023-08-06T07:05:48;9.55;;;2.50;;
41875;SDS011;27555;50.808;4.402;2023-08-06T07:08:15;9.10;;;2.28;;
41875;SDS011;27555;50.808;4.402;2023-08-06T07:10:40;7.82;;;2.38;;
41875;SDS011;27555;50.808;4.402;2023-08-06T07:13:07;15.55;;;2.97;;
41875;SDS011;27555;50.808;4.402;2023-08-06T07:15:33;7.15;;;1.70;;
41875;SDS011;27555;50.808;4.402;2023-08-06T07:17:58;11.07;;;2.25;;
41875;SDS011;27555;50.808;4.402;2023-08-06T07:20:24;7.57;;;1.48;;
41875;SDS011;27555;50.808;4.402;2023-08-06T07:22:49;9.40;;;2.13;;
41875;SDS011;27555;50.808;4.402;2023-08-06T07:25:16;8.07;;;2.08;;
41875;SDS011;27555;50.808;4.402;2023-08-06T07:27:42;8.13;;;1.50;;
41875;SDS011;27555;50.808;4.402;2023-08-06T07:30:08;9.00;;;1.17;;
41875;SDS011;27555;50.808;4.402;2023-08-06T07:32:34;10.45;;;2.50;;
41875;SDS011;27555;50.808;4.402;2023-08-06T07:34:59;6.43;;;1.40;;
41875;SDS011;27555;50.808;4.402;2023-08-06T07:37:25;9.02;;;1.65;;
41875;SDS011;27555;50.808;4.402;2023-08-06T07:39:56;18.13;;;2.15;;
41875;SDS011;27555;50.808;4.402;2023-08-06T07:42:22;5.78;;;1.05;;
41875;SDS011;27555;50.808;4.402;2023-08-06T07:44:51;6.65;;;1.52;;
41875;SDS011;27555;50.808;4.402;2023-08-06T07:47:21;3.60;;;1.30;;
41875;SDS011;27555;50.808;4.402;2023-08-06T07:49:47;9.38;;;1.77;;
41875;SDS011;27555;50.808;4.402;2023-08-06T07:52:13;13.35;;;2.05;;
41875;SDS011;27555;50.808;4.402;2023-08-06T07:54:38;11.25;;;1.83;;
41875;SDS011;27555;50.808;4.402;2023-08-06T07:57:04;9.90;;;2.10;;
41875;SDS011;27555;50.808;4.402;2023-08-06T07:59:30;10.50;;;1.65;;
41875;SDS011;27555;50.808;4.402;2023-08-06T08:01:55;4.93;;;1.45;;
41875;SDS011;27555;50.808;4.402;2023-08-06T08:04:21;7.15;;;1.90;;
41875;SDS011;27555;50.808;4.402;2023-08-06T08:06:47;8.23;;;1.55;;
41875;SDS011;27555;50.808;4.402;2023-08-06T08:09:13;8.18;;;1.73;;
41875;SDS011;27555;50.808;4.402;2023-08-06T08:11:39;15.05;;;2.67;;
41875;SDS011;27555;50.808;4.402;2023-08-06T08:14:08;11.30;;;1.95;;
41875;SDS011;27555;50.808;4.402;2023-08-06T08:16:33;11.75;;;1.67;;
41875;SDS011;27555;50.808;4.402;2023-08-06T08:18:59;6.32;;;1.40;;
41875;SDS011;27555;50.808;4.402;2023-08-06T08:21:25;12.38;;;2.30;;
41875;SDS011;27555;50.808;4.402;2023-08-06T08:23:51;10.15;;;1.75;;
41875;SDS011;27555;50.808;4.402;2023-08-06T08:26:16;8.80;;;1.98;;
41875;SDS011;27555;50.808;4.402;2023-08-06T08:28:42;6.45;;;1.08;;
41875;SDS011;27555;50.808;4.402;2023-08-06T08:31:08;10.77;;;1.95;;
41875;SDS011;27555;50.808;4.402;2023-08-06T08:33:35;8.35;;;1.60;;
41875;SDS011;27555;50.808;4.402;2023-08-06T08:36:00;7.35;;;1.35;;
41875;SDS011;27555;50.808;4.402;2023-08-06T08:38:26;5.53;;;1.48;;
41875;SDS011;27555;50.808;4.402;2023-08-06T08:40:52;5.20;;;1.55;;
41875;SDS011;27555;50.808;4.402;2023-08-06T08:43:22;3.92;;;0.90;;
41875;SDS011;27555;50.808;4.402;2023-08-06T08:45:51;9.85;;;1.95;;
41875;SDS011;27555;50.808;4.402;2023-08-06T08:48:20;5.45;;;1.23;;
41875;SDS011;27555;50.808;4.402;2023-08-06T08:50:48;7.78;;;1.35;;
41875;SDS011;27555;50.808;4.402;2023-08-06T08:53:14;9.60;;;1.65;;
41875;SDS011;27555;50.808;4.402;2023-08-06T08:55:46;8.48;;;1.88;;
41875;SDS011;27555;50.808;4.402;2023-08-06T08:58:13;12.40;;;2.45;;
41875;SDS011;27555;50.808;4.402;2023-08-06T09:00:40;9.70;;;1.38;;
41875;SDS011;27555;50.808;4.402;2023-08-06T09:03:08;5.17;;;1.57;;
41875;SDS011;27555;50.808;4.402;2023-08-06T09:05:34;3.33;;;1.20;;
41875;SDS011;27555;50.808;4.402;2023-08-06T09:08:04;8.82;;;2.55;;
41875;SDS011;27555;50.808;4.402;2023-08-06T09:10:30;7.85;;;1.40;;
41875;SDS011;27555;50.808;4.402;2023-08-06T09:12:56;9.25;;;1.58;;
41875;SDS011;27555;50.808;4.402;2023-08-06T09:15:26;10.02;;;1.80;;
41875;SDS011;27555;50.808;4.402;2023-08-06T09:17:52;13.43;;;2.87;;
41875;SDS011;27555;50.808;4.402;2023-08-06T09:20:18;9.55;;;1.73;;
41875;SDS011;27555;50.808;4.402;2023-08-06T09:22:45;8.98;;;1.13;;
41875;SDS011;27555;50.808;4.402;2023-08-06T09:25:13;11.27;;;1.98;;
41875;SDS011;27555;50.808;4.402;2023-08-06T09:27:50;10.77;;;2.30;;
41875;SDS011;27555;50.808;4.402;2023-08-06T09:30:30;11.65;;;2.25;;
41875;SDS011;27555;50.808;4.402;2023-08-06T09:32:56;12.50;;;1.75;;
41875;SDS011;27555;50.808;4.402;2023-08-06T09:35:22;7.95;;;1.38;;
41875;SDS011;27555;50.808;4.402;2023-08-06T09:37:48;8.95;;;1.77;;
41875;SDS011;27555;50.808;4.402;2023-08-06T09:42:52;12.20;;;2.97;;
41875;SDS011;27555;50.808;4.402;2023-08-06T09:45:18;9.88;;;1.83;;
41875;SDS011;27555;50.808;4.402;2023-08-06T09:47:43;7.25;;;1.63;;
41875;SDS011;27555;50.808;4.402;2023-08-06T09:50:16;7.13;;;1.52;;
41875;SDS011;27555;50.808;4.402;2023-08-06T09:52:46;6.78;;;1.42;;
41875;SDS011;27555;50.808;4.402;2023-08-06T09:55:12;5.72;;;1.17;;
41875;SDS011;27555;50.808;4.402;2023-08-06T09:57:41;12.77;;;2.13;;
41875;SDS011;27555;50.808;4.402;2023-08-06T10:00:08;9.00;;;1.87;;
41875;SDS011;27555;50.808;4.402;2023-08-06T10:02:37;7.22;;;1.58;;
41875;SDS011;27555;50.808;4.402;2023-08-06T10:05:04;9.07;;;1.83;;
41875;SDS011;27555;50.808;4.402;2023-08-06T10:07:30;15.07;;;1.90;;
41875;SDS011;27555;50.808;4.402;2023-08-06T10:09:56;7.47;;;1.73;;
41875;SDS011;27555;50.808;4.402;2023-08-06T10:12:23;8.50;;;1.70;;
41875;SDS011;27555;50.808;4.402;2023-08-06T10:14:50;8.23;;;1.80;;
41875;SDS011;27555;50.808;4.402;2023-08-06T10:17:20;7.10;;;1.45;;
41875;SDS011;27555;50.808;4.402;2023-08-06T10:19:47;7.35;;;1.40;;
41875;SDS011;27555;50.808;4.402;2023-08-06T10:22:15;8.27;;;1.92;;
41875;SDS011;27555;50.808;4.402;2023-08-06T10:24:48;5.88;;;1.35;;
41875;SDS011;27555;50.808;4.402;2023-08-06T10:27:19;5.20;;;2.00;;
41875;SDS011;27555;50.808;4.402;2023-08-06T10:32:47;8.60;;;1.70;;
41875;SDS011;27555;50.808;4.402;2023-08-06T10:35:47;9.65;;;2.40;;
41875;SDS011;27555;50.808;4.402;2023-08-06T10:38:19;11.82;;;2.08;;
41875;SDS011;27555;50.808;4.402;2023-08-06T10:43:32;12.20;;;2.17;;
41875;SDS011;27555;50.808;4.402;2023-08-06T10:46:09;3.40;;;1.10;;
41875;SDS011;27555;50.808;4.402;2023-08-06T10:48:39;7.53;;;1.80;;
41875;SDS011;27555;50.808;4.402;2023-08-06T10:51:13;7.03;;;1.55;;
41875;SDS011;27555;50.808;4.402;2023-08-06T10:53:43;8.82;;;2.47;;
41875;SDS011;27555;50.808;4.402;2023-08-06T10:56:18;10.32;;;2.10;;
41875;SDS011;27555;50.808;4.402;2023-08-06T10:58:48;10.98;;;2.05;;
41875;SDS011;27555;50.808;4.402;2023-08-06T11:01:15;5.63;;;1.50;;
41875;SDS011;27555;50.808;4.402;2023-08-06T11:03:42;11.55;;;2.40;;
41875;SDS011;27555;50.808;4.402;2023-08-06T11:06:09;8.05;;;1.38;;
41875;SDS011;27555;50.808;4.402;2023-08-06T11:08:40;7.30;;;2.40;;
41875;SDS011;27555;50.808;4.402;2023-08-06T11:11:12;9.45;;;1.83;;
41875;SDS011;27555;50.808;4.402;2023-08-06T11:13:46;5.45;;;1.50;;
41875;SDS011;27555;50.808;4.402;2023-08-06T11:16:16;10.18;;;2.90;;
41875;SDS011;27555;50.808;4.402;2023-08-06T11:18:44;12.23;;;1.70;;
41875;SDS011;27555;50.808;4.402;2023-08-06T11:21:11;10.52;;;2.05;;
41875;SDS011;27555;50.808;4.402;2023-08-06T11:23:40;8.93;;;2.05;;
41875;SDS011;27555;50.808;4.402;2023-08-06T11:26:06;9.52;;;2.10;;
41875;SDS011;27555;50.808;4.402;2023-08-06T11:28:32;8.15;;;1.58;;
41875;SDS011;27555;50.808;4.402;2023-08-06T11:30:58;9.55;;;1.70;;
41875;SDS011;27555;50.808;4.402;2023-08-06T11:33:27;5.70;;;1.45;;
41875;SDS011;27555;50.808;4.402;2023-08-06T11:35:57;5.32;;;1.05;;
41875;SDS011;27555;50.808;4.402;2023-08-06T11:38:26;6.45;;;1.00;;
41875;SDS011;27555;50.808;4.402;2023-08-06T11:40:53;5.57;;;1.20;;
41875;SDS011;27555;50.808;4.402;2023-08-06T11:43:19;5.07;;;1.13;;
41875;SDS011;27555;50.808;4.402;2023-08-06T11:45:47;13.35;;;1.90;;
41875;SDS011;27555;50.808;4.402;2023-08-06T11:50:43;8.07;;;1.65;;
41875;SDS011;27555;50.808;4.402;2023-08-06T11:53:11;5.25;;;1.10;;
41875;SDS011;27555;50.808;4.402;2023-08-06T11:58:05;7.50;;;1.58;;
41875;SDS011;27555;50.808;4.402;2023-08-06T12:00:30;5.65;;;1.40;;
41875;SDS011;27555;50.808;4.402;2023-08-06T12:02:56;2.97;;;1.10;;
41875;SDS011;27555;50.808;4.402;2023-08-06T12:05:23;7.25;;;1.27;;
41875;SDS011;27555;50.808;4.402;2023-08-06T12:07:56;6.28;;;1.60;;
41875;SDS011;27555;50.808;4.402;2023-08-06T12:10:24;5.50;;;2.05;;
41875;SDS011;27555;50.808;4.402;2023-08-06T12:12:51;6.95;;;1.30;;
41875;SDS011;27555;50.808;4.402;2023-08-06T12:15:17;7.85;;;1.75;;
41875;SDS011;27555;50.808;4.402;2023-08-06T12:17:43;7.55;;;1.40;;
41875;SDS011;27555;50.808;4.402;2023-08-06T12:20:09;7.38;;;2.53;;
41875;SDS011;27555;50.808;4.402;2023-08-06T12:22:35;6.90;;;1.58;;
41875;SDS011;27555;50.808;4.402;2023-08-06T12:25:02;7.38;;;1.45;;
41875;SDS011;27555;50.808;4.402;2023-08-06T12:27:37;7.60;;;1.50;;
41875;SDS011;27555;50.808;4.402;2023-08-06T12:30:04;11.40;;;1.75;;
41875;SDS011;27555;50.808;4.402;2023-08-06T12:32:30;10.20;;;1.50;;
41875;SDS011;27555;50.808;4.402;2023-08-06T12:34:56;8.00;;;2.20;;
41875;SDS011;27555;50.808;4.402;2023-08-06T12:37:22;7.05;;;1.50;;
41875;SDS011;27555;50.808;4.402;2023-08-06T12:39:49;8.55;;;1.50;;
41875;SDS011;27555;50.808;4.402;2023-08-06T12:42:14;12.82;;;2.80;;
41875;SDS011;27555;50.808;4.402;2023-08-06T12:44:40;8.48;;;1.88;;
41875;SDS011;27555;50.808;4.402;2023-08-06T12:47:06;10.27;;;2.42;;
41875;SDS011;27555;50.808;4.402;2023-08-06T12:49:32;11.18;;;2.35;;
41875;SDS011;27555;50.808;4.402;2023-08-06T12:51:58;5.68;;;1.38;;
41875;SDS011;27555;50.808;4.402;2023-08-06T12:54:27;8.18;;;1.85;;
41875;SDS011;27555;50.808;4.402;2023-08-06T12:56:53;5.57;;;1.20;;
41875;SDS011;27555;50.808;4.402;2023-08-06T12:59:19;9.05;;;1.33;;
41875;SDS011;27555;50.808;4.402;2023-08-06T13:01:45;9.98;;;1.90;;
41875;SDS011;27555;50.808;4.402;2023-08-06T13:04:11;4.72;;;1.17;;
41875;SDS011;27555;50.808;4.402;2023-08-06T13:06:37;5.68;;;1.40;;
41875;SDS011;27555;50.808;4.402;2023-08-06T13:09:08;9.25;;;1.70;;
41875;SDS011;27555;50.808;4.402;2023-08-06T13:11:35;5.68;;;1.45;;
41875;SDS011;27555;50.808;4.402;2023-08-06T13:14:06;6.00;;;1.70;;
41875;SDS011;27555;50.808;4.402;2023-08-06T13:16:36;5.28;;;1.45;;
41875;SDS011;27555;50.808;4.402;2023-08-06T13:19:04;5.93;;;1.45;;
41875;SDS011;27555;50.808;4.402;2023-08-06T13:21:34;9.23;;;2.50;;
41875;SDS011;27555;50.808;4.402;2023-08-06T13:24:06;7.93;;;1.58;;
41875;SDS011;27555;50.808;4.402;2023-08-06T13:26:32;13.30;;;2.05;;
41875;SDS011;27555;50.808;4.402;2023-08-06T13:28:58;11.38;;;1.80;;
41875;SDS011;27555;50.808;4.402;2023-08-06T13:31:25;7.75;;;1.52;;
41875;SDS011;27555;50.808;4.402;2023-08-06T13:33:52;11.82;;;1.48;;
41875;SDS011;27555;50.808;4.402;2023-08-06T13:36:20;7.68;;;2.05;;
41875;SDS011;27555;50.808;4.402;2023-08-06T13:38:46;4.30;;;1.40;;
41875;SDS011;27555;50.808;4.402;2023-08-06T13:41:12;8.90;;;1.42;;
41875;SDS011;27555;50.808;4.402;2023-08-06T13:43:38;5.30;;;1.27;;
41875;SDS011;27555;50.808;4.402;2023-08-06T13:46:04;9.55;;;1.75;;
41875;SDS011;27555;50.808;4.402;2023-08-06T13:48:30;5.28;;;1.45;;
41875;SDS011;27555;50.808;4.402;2023-08-06T13:50:55;7.18;;;1.83;;
41875;SDS011;27555;50.808;4.402;2023-08-06T13:53:21;7.47;;;1.23;;
41875;SDS011;27555;50.808;4.402;2023-08-06T13:55:46;13.05;;;2.30;;
41875;SDS011;27555;50.808;4.402;2023-08-06T13:58:12;11.50;;;1.92;;
41875;SDS011;27555;50.808;4.402;2023-08-06T14:00:38;9.52;;;2.22;;
41875;SDS011;27555;50.808;4.402;2023-08-06T14:03:03;6.47;;;2.20;;
41875;SDS011;27555;50.808;4.402;2023-08-06T14:05:29;7.10;;;1.50;;
41875;SDS011;27555;50.808;4.402;2023-08-06T14:07:55;6.32;;;1.65;;
41875;SDS011;27555;50.808;4.402;2023-08-06T14:10:20;9.00;;;1.30;;
41875;SDS011;27555;50.808;4.402;2023-08-06T14:12:46;5.70;;;1.33;;
41875;SDS011;27555;50.808;4.402;2023-08-06T14:15:11;12.13;;;1.73;;
41875;SDS011;27555;50.808;4.402;2023-08-06T14:17:37;5.18;;;1.65;;
41875;SDS011;27555;50.808;4.402;2023-08-06T14:20:03;4.07;;;1.45;;
41875;SDS011;27555;50.808;4.402;2023-08-06T14:22:32;5.95;;;1.27;;
41875;SDS011;27555;50.808;4.402;2023-08-06T14:24:58;5.28;;;1.58;;
41875;SDS011;27555;50.808;4.402;2023-08-06T14:27:24;4.75;;;1.35;;
41875;SDS011;27555;50.808;4.402;2023-08-06T14:29:49;5.93;;;1.52;;
41875;SDS011;27555;50.808;4.402;2023-08-06T14:32:15;6.47;;;1.30;;
41875;SDS011;27555;50.808;4.402;2023-08-06T14:34:43;8.30;;;1.10;;
41875;SDS011;27555;50.808;4.402;2023-08-06T14:37:10;9.60;;;1.88;;
41875;SDS011;27555;50.808;4.402;2023-08-06T14:39:35;11.73;;;1.77;;
41875;SDS011;27555;50.808;4.402;2023-08-06T14:42:01;6.75;;;1.50;;
41875;SDS011;27555;50.808;4.402;2023-08-06T14:44:28;8.10;;;1.27;;
41875;SDS011;27555;50.808;4.402;2023-08-06T14:46:54;5.97;;;1.42;;
41875;SDS011;27555;50.808;4.402;2023-08-06T14:49:19;6.75;;;1.63;;
41875;SDS011;27555;50.808;4.402;2023-08-06T14:51:45;5.15;;;1.77;;
41875;SDS011;27555;50.808;4.402;2023-08-06T14:54:11;5.43;;;1.60;;
41875;SDS011;27555;50.808;4.402;2023-08-06T14:56:36;10.30;;;1.70;;
41875;SDS011;27555;50.808;4.402;2023-08-06T14:59:02;9.55;;;1.50;;
41875;SDS011;27555;50.808;4.402;2023-08-06T15:01:28;7.88;;;1.30;;